Newark Liberty International Airport
KEWR : now visible

Airfield :











YOU CAN JOIN US ON...

 
LOGIN :

Register | Disclaimer

   EN    FR    IT 

 









Legend :    VFR   Marginal VFR   IFR   Intensive IFR   Very Intensive IFR
Visi :
Ceiling :
>= 8 km
>= 3000ft
5 to 8 km
1000 to 3000 ft
1500m to 5 km
500 to 1000 ft
800 to 1500m
200 to 500 ft
< 800m
< 200 ft
Symbols :   Thunderstorms  Fog  Heavy snow  Heavy precipitations  Wind > 20 kt






- Airport Elevation : 18 ft
- IATA code : EWR


KEWR - Newark Liberty International

CURRENT METAR :
  • 221151Z 28018KT 10SM FEW055 04/M11 A2986 RMK AO2 PK WND 28030/1137 SLP111 T00391106 10039 20028 53021

EXPIRED METARs :
  • 221051Z 29017G30KT 10SM SCT042 SCT060 03/M11 A2984 RMK AO2 PK WND 29030/1044 SLP104 T00281106
  • 220951Z 25013KT 10SM SCT050 BKN070 03/M05 A2981 RMK AO2 SLP093 T00281050

TAF KEWR
Valid from the 22 at 12:00 until the 23 at 18:00 UTC


221133Z 2212/2318 29015G26KT P6SM SCT050
FM221500 29020G34KT P6SM SCT070
FM230000 29017G25KT P6SM SCT070
FM230200 28012G18KT P6SM FEW070
FM230800 26010KT P6SM SKC
FM231500 27015G23KT P6SM SKC
KZNY FIR / North America



MET'MAP, your aeronautical weather chart ! - Copyright ORBIFLY December 2007 - Disclaimer

ORBIFLY MET'MAP TEAM :

Programming & Development : Alexandra Zaïnal
Concept & original design : Baudouin d'Aumeries
Assistance for programming : Marc-Olivier Méhu
Technical & hardware support : Manuel Goepfert

Contact : metmap@orbifly.com




SOURCES & CREDITS :

   NOAA       Earth
Advisory